createdAt,value
2022-12-17T00:00:01.101Z,100.00
2022-12-17T00:02:46.563Z,100.00
2022-12-17T00:05:32.529Z,100.00
2022-12-17T00:08:18.419Z,100.00
2022-12-17T00:11:03.849Z,100.00
2022-12-17T00:13:50.292Z,100.00
2022-12-17T00:16:35.586Z,100.00
2022-12-17T00:19:20.749Z,100.00
2022-12-17T00:22:06.101Z,100.00
2022-12-17T00:24:51.460Z,100.00
2022-12-17T00:27:45.777Z,100.00
2022-12-17T00:30:32.777Z,100.00
2022-12-17T00:33:18.181Z,100.00
2022-12-17T00:36:09.837Z,100.00
2022-12-17T00:38:55.145Z,100.00
2022-12-17T00:41:41.969Z,100.00
2022-12-17T00:44:27.290Z,100.00
2022-12-17T00:47:13.969Z,100.00
2022-12-17T00:49:59.304Z,100.00
2022-12-17T00:52:44.591Z,100.00
2022-12-17T00:55:30.091Z,100.00
2022-12-17T00:58:16.063Z,100.00
2022-12-17T01:01:01.746Z,100.00
2022-12-17T01:03:48.186Z,100.00
2022-12-17T01:06:33.473Z,100.00
2022-12-17T01:09:18.816Z,100.00
2022-12-17T01:12:04.115Z,100.00
2022-12-17T01:14:49.544Z,100.00
2022-12-17T01:17:35.031Z,100.00
2022-12-17T01:20:27.358Z,100.00
2022-12-17T01:23:12.717Z,100.00
2022-12-17T01:26:06.468Z,100.00
2022-12-17T01:28:51.830Z,100.00
2022-12-17T01:31:36.456Z,100.00
2022-12-17T01:34:21.817Z,100.00
2022-12-17T01:37:08.417Z,100.00
2022-12-17T01:39:53.728Z,100.00
2022-12-17T01:42:39.219Z,100.00
2022-12-17T01:45:26.363Z,100.00
2022-12-17T01:48:14.975Z,100.00
2022-12-17T01:51:02.333Z,100.00
2022-12-17T01:53:52.623Z,100.00
2022-12-17T01:56:38.046Z,100.00
2022-12-17T01:59:24.849Z,100.00
2022-12-17T02:02:10.397Z,100.00
2022-12-17T02:04:55.880Z,100.00
2022-12-17T02:08:01.753Z,100.00
2022-12-17T02:10:52.668Z,100.00
2022-12-17T02:13:45.592Z,100.00
2022-12-17T02:16:39.667Z,100.00
2022-12-17T02:19:32.631Z,100.00
2022-12-17T02:22:24.497Z,100.00
2022-12-17T02:25:13.264Z,100.00
2022-12-17T02:28:14.957Z,100.00
2022-12-17T02:31:00.135Z,100.00
2022-12-17T02:33:45.507Z,100.00
2022-12-17T02:36:31.017Z,100.00
2022-12-17T02:39:18.481Z,100.00
2022-12-17T02:42:02.909Z,100.00
2022-12-17T02:44:50.155Z,100.00
2022-12-17T02:47:36.335Z,100.00
2022-12-17T02:50:21.727Z,100.00
2022-12-17T02:53:07.693Z,100.00
2022-12-17T02:55:54.077Z,100.00
2022-12-17T02:58:40.009Z,100.00
2022-12-17T03:01:32.160Z,100.00
2022-12-17T03:04:17.544Z,100.00
2022-12-17T03:07:03.059Z,100.00
2022-12-17T03:09:48.537Z,100.00
2022-12-17T03:12:33.789Z,100.00
2022-12-17T03:15:19.080Z,100.00
2022-12-17T03:18:01.940Z,100.00
2022-12-17T03:20:47.294Z,100.00
2022-12-17T03:23:32.740Z,100.00
2022-12-17T03:26:19.098Z,100.00
2022-12-17T03:29:04.297Z,100.00
2022-12-17T03:31:49.654Z,100.00
2022-12-17T03:34:36.397Z,100.00
2022-12-17T03:37:19.075Z,100.00
2022-12-17T03:40:04.497Z,100.00
2022-12-17T03:42:49.731Z,100.00
2022-12-17T03:45:35.213Z,100.00
2022-12-17T03:48:25.090Z,100.00
2022-12-17T03:51:12.237Z,100.00
2022-12-17T03:53:57.486Z,100.00
2022-12-17T03:56:43.334Z,100.00
2022-12-17T03:59:29.249Z,100.00
2022-12-17T04:02:14.711Z,100.00
2022-12-17T04:04:59.120Z,100.00
2022-12-17T04:07:45.825Z,100.00
2022-12-17T04:10:31.348Z,100.00
2022-12-17T04:13:16.824Z,100.00
2022-12-17T04:16:02.242Z,100.00
2022-12-17T04:18:47.486Z,100.00
2022-12-17T04:21:32.825Z,100.00
2022-12-17T04:24:19.515Z,100.00
2022-12-17T04:27:04.909Z,100.00
2022-12-17T04:29:50.351Z,100.00
2022-12-17T04:32:41.112Z,100.00
2022-12-17T04:35:27.029Z,100.00
2022-12-17T04:38:12.450Z,100.00
2022-12-17T04:40:55.325Z,100.00
2022-12-17T04:43:40.683Z,100.00
2022-12-17T04:46:26.224Z,100.00
2022-12-17T04:49:11.325Z,100.00
2022-12-17T04:51:56.740Z,100.00
2022-12-17T04:54:42.034Z,100.00
2022-12-17T04:57:43.192Z,100.00
2022-12-17T05:00:29.536Z,100.00
2022-12-17T05:03:14.545Z,100.00
2022-12-17T05:06:00.003Z,100.00
2022-12-17T05:08:45.402Z,100.00
2022-12-17T05:11:30.724Z,100.00
2022-12-17T05:14:17.514Z,100.00
2022-12-17T05:17:02.780Z,100.00
2022-12-17T05:19:49.320Z,100.00
2022-12-17T05:22:34.701Z,100.00
2022-12-17T05:25:20.096Z,100.00
2022-12-17T05:28:05.648Z,100.00
2022-12-17T05:30:52.292Z,100.00
2022-12-17T05:33:37.904Z,100.00
2022-12-17T05:36:29.103Z,100.00
2022-12-17T05:39:13.561Z,100.00
2022-12-17T05:42:04.174Z,100.00
2022-12-17T05:44:49.582Z,100.00
2022-12-17T05:47:36.250Z,100.00
2022-12-17T05:50:21.577Z,100.00
2022-12-17T05:53:07.090Z,100.00
2022-12-17T05:55:52.621Z,100.00
2022-12-17T05:58:37.920Z,100.00
2022-12-17T06:01:24.495Z,100.00
2022-12-17T06:04:10.977Z,100.00
2022-12-17T06:06:56.327Z,100.00
2022-12-17T06:09:41.585Z,100.00
2022-12-17T06:12:35.176Z,100.00
2022-12-17T06:15:20.521Z,100.00
2022-12-17T06:18:16.496Z,100.00
2022-12-17T06:21:03.984Z,100.00
2022-12-17T06:23:49.414Z,100.00
2022-12-17T06:26:34.743Z,100.00
2022-12-17T06:29:20.282Z,100.00
2022-12-17T06:32:05.581Z,100.00
2022-12-17T06:35:02.381Z,100.00
2022-12-17T06:37:48.765Z,100.00
2022-12-17T06:40:34.126Z,100.00
2022-12-17T06:43:19.841Z,100.00
2022-12-17T06:46:05.102Z,100.00
2022-12-17T06:48:50.230Z,100.00
2022-12-17T06:51:35.511Z,100.00
2022-12-17T06:54:22.273Z,100.00
2022-12-17T06:57:07.868Z,100.00
2022-12-17T06:59:53.214Z,100.00
2022-12-17T07:02:38.701Z,100.00
2022-12-17T07:05:24.290Z,100.00
2022-12-17T07:08:15.837Z,100.00
2022-12-17T07:11:02.632Z,100.00
2022-12-17T07:13:48.085Z,100.00
2022-12-17T07:16:33.436Z,100.00
2022-12-17T07:19:21.437Z,100.00
2022-12-17T07:22:10.772Z,100.00
2022-12-17T07:24:56.200Z,100.00
2022-12-17T07:27:42.864Z,100.00
2022-12-17T07:30:28.799Z,100.00
2022-12-17T07:33:17.678Z,100.00
2022-12-17T07:36:03.110Z,100.00
2022-12-17T07:38:48.626Z,100.00
2022-12-17T07:41:33.821Z,100.00
2022-12-17T07:44:20.561Z,100.00
2022-12-17T07:47:05.974Z,100.00
2022-12-17T07:49:51.675Z,100.00
2022-12-17T07:52:37.226Z,100.00
2022-12-17T07:55:22.518Z,100.00
2022-12-17T07:58:16.292Z,100.00
2022-12-17T08:01:02.894Z,100.00
2022-12-17T08:03:48.161Z,100.00
2022-12-17T08:06:33.570Z,100.00
2022-12-17T08:09:19.057Z,100.00
2022-12-17T08:12:00.924Z,100.00
2022-12-17T08:14:46.277Z,100.00
2022-12-17T08:17:33.817Z,100.00
2022-12-17T08:20:19.857Z,100.00
2022-12-17T08:23:05.032Z,100.00
2022-12-17T08:25:50.498Z,100.00
2022-12-17T08:28:50.457Z,100.00
2022-12-17T08:31:36.281Z,100.00
2022-12-17T08:34:23.050Z,100.00
2022-12-17T08:37:08.504Z,100.00
2022-12-17T08:39:53.600Z,100.00
2022-12-17T08:42:39.045Z,100.00
2022-12-17T08:45:25.370Z,100.00
2022-12-17T08:48:10.821Z,100.00
2022-12-17T08:50:57.577Z,100.00
2022-12-17T08:53:43.200Z,100.00
2022-12-17T08:56:28.680Z,100.00
2022-12-17T08:59:14.084Z,100.00
2022-12-17T09:01:59.622Z,100.00
2022-12-17T09:04:45.210Z,100.00
2022-12-17T09:07:31.841Z,100.00
2022-12-17T09:10:17.308Z,100.00
2022-12-17T09:13:04.896Z,100.00
2022-12-17T09:15:50.977Z,100.00
2022-12-17T09:18:37.651Z,100.00
2022-12-17T09:21:23.586Z,100.00
2022-12-17T09:24:10.220Z,100.00
2022-12-17T09:26:55.620Z,100.00
2022-12-17T09:29:40.854Z,100.00
2022-12-17T09:32:26.604Z,100.00
2022-12-17T09:35:14.205Z,100.00
2022-12-17T09:37:59.541Z,100.00
2022-12-17T09:40:46.409Z,100.00
2022-12-17T09:43:39.604Z,100.00
2022-12-17T09:46:27.160Z,100.00
2022-12-17T09:49:19.899Z,100.00
2022-12-17T09:52:05.163Z,100.00
2022-12-17T09:54:56.421Z,100.00
2022-12-17T09:57:47.992Z,100.00
2022-12-17T10:00:35.380Z,100.00
2022-12-17T10:03:21.267Z,100.00
2022-12-17T10:06:06.930Z,100.00
2022-12-17T10:08:53.111Z,100.00
2022-12-17T10:11:44.838Z,100.00
2022-12-17T10:14:35.920Z,98.86
2022-12-17T10:17:21.493Z,98.24
2022-12-17T10:20:08.772Z,98.42
2022-12-17T10:23:01.209Z,97.72
2022-12-17T10:25:46.583Z,96.72
2022-12-17T10:28:33.565Z,95.43
2022-12-17T10:31:21.154Z,94.81
2022-12-17T10:34:06.304Z,96.04
2022-12-17T10:36:51.649Z,94.75
2022-12-17T10:39:39.251Z,93.92
2022-12-17T10:42:38.892Z,92.96
2022-12-17T10:45:41.778Z,92.75
2022-12-17T10:48:39.613Z,92.43
2022-12-17T10:51:34.170Z,93.20
2022-12-17T10:54:27.250Z,92.71
2022-12-17T10:57:14.081Z,91.33
2022-12-17T10:59:59.291Z,89.93
2022-12-17T11:02:45.894Z,89.96
2022-12-17T11:05:42.755Z,88.85
2022-12-17T11:08:29.081Z,90.01
2022-12-17T11:11:14.419Z,89.03
2022-12-17T11:14:02.157Z,88.16
2022-12-17T11:16:49.581Z,87.39
2022-12-17T11:20:01.957Z,86.69
2022-12-17T11:22:53.830Z,86.77
2022-12-17T11:25:45.001Z,86.86
2022-12-17T11:28:34.556Z,87.29
2022-12-17T11:31:32.780Z,86.35
2022-12-17T11:34:22.146Z,85.95
2022-12-17T11:37:13.307Z,85.70
2022-12-17T11:40:04.817Z,86.26
2022-12-17T11:42:54.372Z,85.10
2022-12-17T11:45:47.133Z,85.95
2022-12-17T11:48:36.129Z,85.73
2022-12-17T11:51:25.763Z,86.21
2022-12-17T11:54:18.356Z,86.60
2022-12-17T11:57:11.744Z,86.05
2022-12-17T12:00:15.221Z,84.97
2022-12-17T12:03:07.870Z,86.26
2022-12-17T12:05:59.989Z,85.96
2022-12-17T12:08:46.744Z,85.90
2022-12-17T12:11:40.787Z,85.40
2022-12-17T12:14:34.102Z,83.87
2022-12-17T12:17:38.571Z,84.42
2022-12-17T12:20:30.431Z,85.47
2022-12-17T12:23:22.414Z,84.41
2022-12-17T12:26:14.753Z,85.02
2022-12-17T12:29:04.281Z,84.86
2022-12-17T12:31:54.847Z,85.73
2022-12-17T12:34:43.456Z,85.77
2022-12-17T12:37:32.717Z,85.37
2022-12-17T12:40:21.140Z,84.50
2022-12-17T12:43:09.087Z,85.60
2022-12-17T12:46:03.574Z,85.88
2022-12-17T12:48:58.170Z,87.28
2022-12-17T12:51:45.500Z,87.97
2022-12-17T12:54:42.872Z,86.94
2022-12-17T12:57:45.349Z,87.62
2022-12-17T13:00:56.213Z,87.55
2022-12-17T13:03:46.856Z,88.50
2022-12-17T13:06:41.477Z,89.25
2022-12-17T13:09:21.724Z,88.56
2022-12-17T13:11:50.662Z,89.15
2022-12-17T13:14:21.191Z,88.36
2022-12-17T13:16:53.618Z,88.48
2022-12-17T13:19:34.513Z,89.11
2022-12-17T13:22:28.262Z,89.83
2022-12-17T13:24:57.984Z,89.95
2022-12-17T13:27:32.087Z,90.25
2022-12-17T13:30:00.765Z,90.35
2022-12-17T13:32:30.752Z,90.35
2022-12-17T13:35:10.528Z,91.68
2022-12-17T13:37:44.313Z,91.60
2022-12-17T13:40:24.027Z,92.11
2022-12-17T13:42:52.022Z,91.93
2022-12-17T13:45:23.362Z,93.30
2022-12-17T13:47:55.846Z,94.04
2022-12-17T13:50:33.765Z,94.22
2022-12-17T13:53:11.489Z,93.65
2022-12-17T13:55:39.196Z,94.99
2022-12-17T13:58:06.748Z,94.84
2022-12-17T14:00:34.922Z,94.79
2022-12-17T14:03:11.988Z,96.50
2022-12-17T14:05:42.459Z,96.71
2022-12-17T14:08:16.093Z,96.60
2022-12-17T14:11:14.414Z,96.86
2022-12-17T14:13:41.274Z,97.83
2022-12-17T14:16:09.057Z,98.52
2022-12-17T14:18:37.875Z,99.08
2022-12-17T14:21:06.676Z,99.69
2022-12-17T14:23:35.681Z,100.00
2022-12-17T14:26:03.666Z,100.00
2022-12-17T14:28:32.988Z,100.00
2022-12-17T14:34:07.202Z,100.00
2022-12-17T14:36:35.747Z,100.00
2022-12-17T14:39:11.052Z,100.00
2022-12-17T14:41:57.791Z,100.00
2022-12-17T14:44:28.100Z,100.00
2022-12-17T14:47:07.539Z,100.00
2022-12-17T14:49:35.209Z,100.00
2022-12-17T14:52:13.319Z,100.00
2022-12-17T14:54:47.386Z,100.00
2022-12-17T14:57:22.475Z,100.00
2022-12-17T14:59:52.419Z,100.00
2022-12-17T15:02:26.210Z,100.00
2022-12-17T15:04:55.164Z,100.00
2022-12-17T15:07:25.734Z,100.00
2022-12-17T15:09:55.877Z,100.00
2022-12-17T15:12:24.853Z,100.00
2022-12-17T15:14:52.501Z,100.00
2022-12-17T15:17:20.081Z,100.00
2022-12-17T15:19:51.443Z,100.00
2022-12-17T15:22:23.298Z,100.00
2022-12-17T15:24:50.846Z,100.00
2022-12-17T15:27:19.788Z,100.00
2022-12-17T15:29:47.407Z,100.00
2022-12-17T15:32:19.104Z,100.00
2022-12-17T15:34:46.683Z,100.00
2022-12-17T15:37:14.678Z,100.00
2022-12-17T15:39:42.225Z,100.00
2022-12-17T15:42:27.614Z,100.00
2022-12-17T15:44:56.542Z,100.00
2022-12-17T15:47:24.204Z,100.00
2022-12-17T15:49:51.793Z,100.00
2022-12-17T15:52:20.533Z,100.00
2022-12-17T15:54:49.245Z,100.00
2022-12-17T15:57:18.665Z,100.00
2022-12-17T15:59:46.661Z,100.00
2022-12-17T16:02:15.810Z,100.00
2022-12-17T16:04:43.588Z,100.00
2022-12-17T16:07:11.313Z,100.00
2022-12-17T16:09:38.864Z,100.00
2022-12-17T16:12:07.003Z,100.00
2022-12-17T16:14:34.624Z,100.00
2022-12-17T16:17:02.228Z,100.00
2022-12-17T16:19:31.208Z,100.00
2022-12-17T16:21:58.773Z,100.00
2022-12-17T16:24:26.353Z,100.00
2022-12-17T16:26:54.383Z,100.00
2022-12-17T16:29:23.161Z,100.00
2022-12-17T16:31:50.740Z,100.00
2022-12-17T16:34:18.475Z,100.00
2022-12-17T16:36:47.507Z,100.00
2022-12-17T16:39:17.452Z,100.00
2022-12-17T16:41:45.435Z,100.00
2022-12-17T16:44:13.126Z,100.00
2022-12-17T16:46:42.864Z,100.00
2022-12-17T16:49:12.484Z,100.00
2022-12-17T16:51:41.106Z,100.00
2022-12-17T16:54:13.179Z,100.00
2022-12-17T16:56:40.905Z,100.00
2022-12-17T16:59:09.658Z,100.00
2022-12-17T17:01:38.526Z,100.00
2022-12-17T17:04:07.291Z,100.00
2022-12-17T17:06:39.442Z,100.00
2022-12-17T17:09:07.373Z,100.00
2022-12-17T17:11:36.308Z,100.00
2022-12-17T17:14:04.398Z,100.00
2022-12-17T17:16:34.109Z,100.00
2022-12-17T17:19:02.125Z,100.00
2022-12-17T17:21:31.917Z,100.00
2022-12-17T17:24:01.407Z,100.00
2022-12-17T17:26:30.835Z,100.00
2022-12-17T17:29:00.128Z,100.00
2022-12-17T17:32:01.334Z,100.00
2022-12-17T17:34:16.405Z,100.00
2022-12-17T17:36:44.193Z,100.00
2022-12-17T17:39:12.103Z,100.00
2022-12-17T17:41:39.673Z,100.00
2022-12-17T17:44:10.032Z,100.00
2022-12-17T17:46:38.116Z,100.00
2022-12-17T17:49:07.417Z,100.00
2022-12-17T17:52:08.492Z,100.00
2022-12-17T17:54:25.583Z,100.00
2022-12-17T17:56:53.209Z,100.00
2022-12-17T17:59:27.857Z,100.00
2022-12-17T18:02:01.294Z,100.00
2022-12-17T18:04:29.120Z,100.00
2022-12-17T18:09:44.354Z,100.00
2022-12-17T18:12:25.900Z,100.00
2022-12-17T18:15:13.837Z,100.00
2022-12-17T18:17:42.713Z,100.00
2022-12-17T18:20:11.734Z,100.00
2022-12-17T18:22:39.301Z,100.00
2022-12-17T18:25:07.094Z,100.00
2022-12-17T18:27:34.670Z,100.00
2022-12-17T18:30:03.801Z,100.00
2022-12-17T18:32:31.347Z,100.00
2022-12-17T18:34:58.955Z,100.00
2022-12-17T18:37:26.607Z,100.00
2022-12-17T18:39:54.280Z,100.00
2022-12-17T18:42:39.491Z,100.00
2022-12-17T18:45:16.597Z,100.00
2022-12-17T18:47:44.733Z,100.00
2022-12-17T18:50:13.113Z,100.00
2022-12-17T18:52:40.728Z,100.00
2022-12-17T18:55:08.716Z,100.00
2022-12-17T18:57:36.284Z,100.00
2022-12-17T19:00:04.299Z,100.00
2022-12-17T19:02:33.428Z,100.00
2022-12-17T19:05:01.176Z,100.00
2022-12-17T19:07:28.774Z,100.00
2022-12-17T19:09:56.334Z,100.00
2022-12-17T19:12:23.944Z,100.00
2022-12-17T19:14:51.534Z,100.00
2022-12-17T19:17:19.151Z,100.00
2022-12-17T19:19:48.195Z,100.00
2022-12-17T19:22:16.107Z,100.00
2022-12-17T19:24:43.702Z,100.00
2022-12-17T19:27:11.301Z,100.00
2022-12-17T19:29:38.902Z,100.00
2022-12-17T19:32:06.857Z,100.00
2022-12-17T19:34:35.075Z,100.00
2022-12-17T19:37:04.667Z,100.00
2022-12-17T19:39:32.296Z,100.00
2022-12-17T19:41:59.834Z,100.00
2022-12-17T19:44:27.731Z,100.00
2022-12-17T19:46:56.100Z,100.00
2022-12-17T19:49:23.934Z,100.00
2022-12-17T19:51:51.551Z,100.00
2022-12-17T19:54:20.954Z,100.00
2022-12-17T19:56:48.574Z,100.00
2022-12-17T19:59:16.272Z,100.00
2022-12-17T20:01:45.434Z,100.00
2022-12-17T20:04:14.457Z,100.00
2022-12-17T20:06:42.191Z,100.00
2022-12-17T20:09:09.821Z,100.00
2022-12-17T20:11:39.021Z,100.00
2022-12-17T20:14:09.187Z,100.00
2022-12-17T20:16:38.949Z,100.00
2022-12-17T20:19:08.325Z,100.00
2022-12-17T20:21:36.039Z,100.00
2022-12-17T20:24:03.687Z,100.00
2022-12-17T20:26:31.717Z,100.00
2022-12-17T20:29:01.133Z,100.00
2022-12-17T20:31:28.922Z,100.00
2022-12-17T20:33:56.623Z,100.00
2022-12-17T20:36:24.490Z,100.00
2022-12-17T20:38:52.050Z,100.00
2022-12-17T20:41:21.111Z,100.00
2022-12-17T20:43:49.559Z,100.00
2022-12-17T20:46:19.732Z,100.00
2022-12-17T20:48:47.847Z,100.00
2022-12-17T20:51:17.253Z,100.00
2022-12-17T20:53:45.786Z,100.00
2022-12-17T20:56:16.076Z,100.00
2022-12-17T20:58:44.510Z,100.00
2022-12-17T21:01:14.201Z,100.00
2022-12-17T21:03:43.369Z,100.00
2022-12-17T21:06:14.687Z,100.00
2022-12-17T21:08:49.368Z,100.00
2022-12-17T21:11:17.866Z,100.00
2022-12-17T21:13:46.102Z,100.00
2022-12-17T21:16:16.400Z,100.00
2022-12-17T21:18:45.670Z,100.00
2022-12-17T21:21:16.846Z,100.00
2022-12-17T21:23:45.174Z,100.00
2022-12-17T21:26:14.878Z,100.00
2022-12-17T21:28:45.195Z,100.00
2022-12-17T21:31:17.805Z,100.00
2022-12-17T21:33:47.640Z,100.00
2022-12-17T21:36:16.916Z,100.00
2022-12-17T21:38:44.545Z,100.00
2022-12-17T21:41:13.968Z,100.00
2022-12-17T21:43:42.348Z,100.00
2022-12-17T21:46:11.539Z,100.00
2022-12-17T21:48:42.230Z,100.00
2022-12-17T21:51:13.344Z,100.00
2022-12-17T21:53:43.720Z,100.00
2022-12-17T21:56:13.025Z,100.00
2022-12-17T21:58:42.224Z,100.00
2022-12-17T22:01:18.373Z,100.00
2022-12-17T22:03:47.695Z,100.00
2022-12-17T22:06:30.691Z,100.00
2022-12-17T22:09:14.743Z,100.00
2022-12-17T22:11:45.697Z,100.00
2022-12-17T22:14:17.207Z,100.00
2022-12-17T22:16:49.771Z,100.00
2022-12-17T22:19:20.895Z,100.00
2022-12-17T22:21:55.210Z,100.00
2022-12-17T22:24:25.734Z,100.00
2022-12-17T22:26:59.477Z,100.00
2022-12-17T22:29:45.413Z,100.00
2022-12-17T22:32:30.877Z,100.00
2022-12-17T22:36:14.887Z,100.00
2022-12-17T22:40:37.908Z,100.00
2022-12-17T22:44:36.240Z,100.00
2022-12-17T22:44:43.836Z,100.00
2022-12-17T22:46:19.271Z,100.00
2022-12-17T22:48:47.319Z,100.00
2022-12-17T22:51:27.272Z,100.00
2022-12-17T22:54:03.124Z,100.00
2022-12-17T22:57:02.251Z,100.00
2022-12-17T22:59:19.895Z,100.00
2022-12-17T23:01:47.645Z,100.00
2022-12-17T23:04:16.699Z,100.00
2022-12-17T23:06:45.787Z,100.00
2022-12-17T23:09:18.957Z,100.00
2022-12-17T23:11:47.458Z,100.00
2022-12-17T23:14:15.272Z,100.00
2022-12-17T23:16:43.682Z,100.00
2022-12-17T23:19:11.406Z,100.00
2022-12-17T23:21:39.255Z,100.00
2022-12-17T23:24:07.738Z,100.00
2022-12-17T23:26:38.236Z,100.00
2022-12-17T23:29:08.713Z,100.00
2022-12-17T23:31:38.610Z,100.00
2022-12-17T23:34:06.805Z,100.00
2022-12-17T23:36:34.935Z,100.00
2022-12-17T23:39:02.869Z,100.00
2022-12-17T23:41:31.521Z,100.00
2022-12-17T23:44:00.986Z,100.00
2022-12-17T23:46:30.133Z,100.00
2022-12-17T23:48:57.902Z,100.00
2022-12-17T23:51:26.853Z,100.00
2022-12-17T23:53:54.493Z,100.00
2022-12-17T23:56:23.948Z,100.00
2022-12-17T23:58:53.527Z,100.00
